sensor_id;sensor_type;location;lat;lon;timestamp;pressure;altitude;pressure_sealevel;temperature;humidity
62510;BME280;48558;48.242;11.654;2023-05-01T00:02:05;96128.63;;;8.57;100.00
62510;BME280;48558;48.242;11.654;2023-05-01T00:06:17;96126.47;;;8.52;100.00
62510;BME280;48558;48.242;11.654;2023-05-01T00:10:30;96113.28;;;8.47;100.00
62510;BME280;48558;48.242;11.654;2023-05-01T00:14:42;96121.59;;;8.56;100.00
62510;BME280;48558;48.242;11.654;2023-05-01T00:18:55;96124.31;;;8.47;100.00
62510;BME280;48558;48.242;11.654;2023-05-01T00:23:07;96118.88;;;8.35;100.00
62510;BME280;48558;48.242;11.654;2023-05-01T00:27:20;96114.47;;;8.37;100.00
62510;BME280;48558;48.242;11.654;2023-05-01T00:31:32;96101.94;;;8.36;100.00
62510;BME280;48558;48.242;11.654;2023-05-01T00:35:45;96092.34;;;8.19;100.00
62510;BME280;48558;48.242;11.654;2023-05-01T00:39:58;96089.59;;;8.19;100.00
62510;BME280;48558;48.242;11.654;2023-05-01T00:44:10;96074.69;;;8.08;100.00
62510;BME280;48558;48.242;11.654;2023-05-01T00:48:23;96082.63;;;8.06;100.00
62510;BME280;48558;48.242;11.654;2023-05-01T00:52:35;96077.66;;;7.91;100.00
62510;BME280;48558;48.242;11.654;2023-05-01T00:56:50;96078.22;;;8.08;100.00
62510;BME280;48558;48.242;11.654;2023-05-01T01:01:03;96081.56;;;8.03;100.00
62510;BME280;48558;48.242;11.654;2023-05-01T01:05:16;96070.13;;;7.83;100.00
62510;BME280;48558;48.242;11.654;2023-05-01T01:10:15;96073.59;;;7.74;100.00
62510;BME280;48558;48.242;11.654;2023-05-01T01:14:57;96068.19;;;7.62;100.00
62510;BME280;48558;48.242;11.654;2023-05-01T01:33:58;96064.91;;;7.11;100.00
62510;BME280;48558;48.242;11.654;2023-05-01T01:38:20;96062.31;;;7.07;100.00
62510;BME280;48558;48.242;11.654;2023-05-01T01:42:42;96060.69;;;6.97;100.00
62510;BME280;48558;48.242;11.654;2023-05-01T01:46:58;96059.50;;;6.86;100.00
62510;BME280;48558;48.242;11.654;2023-05-01T01:51:23;96061.59;;;6.82;100.00
62510;BME280;48558;48.242;11.654;2023-05-01T01:55:38;96035.72;;;6.70;100.00
62510;BME280;48558;48.242;11.654;2023-05-01T01:59:53;96056.16;;;6.69;100.00
62510;BME280;48558;48.242;11.654;2023-05-01T02:04:07;96037.72;;;6.57;100.00
62510;BME280;48558;48.242;11.654;2023-05-01T02:08:30;96044.00;;;6.58;100.00
62510;BME280;48558;48.242;11.654;2023-05-01T02:12:47;96034.56;;;6.46;100.00
62510;BME280;48558;48.242;11.654;2023-05-01T02:17:03;96027.53;;;6.45;100.00
62510;BME280;48558;48.242;11.654;2023-05-01T02:21:17;96026.09;;;6.53;100.00
62510;BME280;48558;48.242;11.654;2023-05-01T02:25:30;96019.06;;;6.52;100.00
62510;BME280;48558;48.242;11.654;2023-05-01T02:29:46;96016.78;;;6.50;100.00
62510;BME280;48558;48.242;11.654;2023-05-01T02:34:08;96006.81;;;6.44;100.00
62510;BME280;48558;48.242;11.654;2023-05-01T02:38:20;96018.97;;;6.43;100.00
62510;BME280;48558;48.242;11.654;2023-05-01T02:42:33;96015.28;;;6.37;100.00
62510;BME280;48558;48.242;11.654;2023-05-01T02:46:47;95999.81;;;6.18;100.00
62510;BME280;48558;48.242;11.654;2023-05-01T02:51:11;96002.00;;;6.23;100.00
62510;BME280;48558;48.242;11.654;2023-05-01T02:55:25;95990.38;;;6.19;100.00
62510;BME280;48558;48.242;11.654;2023-05-01T02:59:38;95990.94;;;6.26;100.00
62510;BME280;48558;48.242;11.654;2023-05-01T03:03:52;95974.56;;;6.23;100.00
62510;BME280;48558;48.242;11.654;2023-05-01T03:08:05;95979.91;;;6.39;100.00
62510;BME280;48558;48.242;11.654;2023-05-01T03:12:17;95982.19;;;6.53;100.00
62510;BME280;48558;48.242;11.654;2023-05-01T03:16:30;95979.13;;;6.51;100.00
62510;BME280;48558;48.242;11.654;2023-05-01T03:20:53;95969.97;;;6.54;100.00
62510;BME280;48558;48.242;11.654;2023-05-01T03:25:06;95979.31;;;6.57;100.00
62510;BME280;48558;48.242;11.654;2023-05-01T03:29:30;95985.94;;;6.46;100.00
62510;BME280;48558;48.242;11.654;2023-05-01T03:33:53;95950.53;;;6.27;100.00
62510;BME280;48558;48.242;11.654;2023-05-01T03:38:05;95991.22;;;6.41;100.00
62510;BME280;48558;48.242;11.654;2023-05-01T03:42:18;95978.38;;;6.38;100.00
62510;BME280;48558;48.242;11.654;2023-05-01T03:46:30;95970.31;;;6.56;100.00
62510;BME280;48558;48.242;11.654;2023-05-01T03:50:43;95965.59;;;6.57;100.00
62510;BME280;48558;48.242;11.654;2023-05-01T03:54:56;95960.00;;;6.60;100.00
62510;BME280;48558;48.242;11.654;2023-05-01T03:59:09;95967.88;;;6.58;100.00
62510;BME280;48558;48.242;11.654;2023-05-01T04:03:21;95962.97;;;6.53;100.00
62510;BME280;48558;48.242;11.654;2023-05-01T04:07:34;95976.88;;;6.59;100.00
62510;BME280;48558;48.242;11.654;2023-05-01T04:11:47;95968.78;;;6.55;100.00
62510;BME280;48558;48.242;11.654;2023-05-01T04:15:59;95976.13;;;6.58;100.00
62510;BME280;48558;48.242;11.654;2023-05-01T04:20:12;95968.66;;;6.59;100.00
62510;BME280;48558;48.242;11.654;2023-05-01T04:24:25;95978.06;;;6.70;100.00
62510;BME280;48558;48.242;11.654;2023-05-01T04:28:38;95983.75;;;6.76;100.00
62510;BME280;48558;48.242;11.654;2023-05-01T04:32:50;95979.28;;;6.91;100.00
62510;BME280;48558;48.242;11.654;2023-05-01T04:37:03;95981.53;;;7.05;100.00
62510;BME280;48558;48.242;11.654;2023-05-01T04:41:28;95969.22;;;7.09;100.00
62510;BME280;48558;48.242;11.654;2023-05-01T04:45:40;95954.91;;;7.14;100.00
62510;BME280;48558;48.242;11.654;2023-05-01T04:49:53;95975.69;;;7.46;100.00
62510;BME280;48558;48.242;11.654;2023-05-01T04:54:06;95964.22;;;7.78;100.00
62510;BME280;48558;48.242;11.654;2023-05-01T04:58:19;95967.41;;;8.17;100.00
62510;BME280;48558;48.242;11.654;2023-05-01T05:02:41;95976.41;;;8.57;100.00
62510;BME280;48558;48.242;11.654;2023-05-01T05:06:54;95956.97;;;8.70;100.00
62510;BME280;48558;48.242;11.654;2023-05-01T05:11:06;95958.19;;;8.68;100.00
62510;BME280;48558;48.242;11.654;2023-05-01T05:15:29;95975.19;;;8.76;100.00
62510;BME280;48558;48.242;11.654;2023-05-01T05:19:42;95967.38;;;8.84;100.00
62510;BME280;48558;48.242;11.654;2023-05-01T05:23:54;95965.81;;;9.19;100.00
62510;BME280;48558;48.242;11.654;2023-05-01T05:28:07;95965.06;;;9.00;100.00
62510;BME280;48558;48.242;11.654;2023-05-01T05:32:29;95958.09;;;9.50;100.00
62510;BME280;48558;48.242;11.654;2023-05-01T05:36:48;95958.50;;;9.76;100.00
62510;BME280;48558;48.242;11.654;2023-05-01T05:41:00;95967.63;;;9.91;100.00
62510;BME280;48558;48.242;11.654;2023-05-01T05:45:23;95958.31;;;10.21;100.00
62510;BME280;48558;48.242;11.654;2023-05-01T05:49:45;95979.44;;;10.57;100.00
62510;BME280;48558;48.242;11.654;2023-05-01T05:53:58;95974.25;;;11.12;100.00
62510;BME280;48558;48.242;11.654;2023-05-01T05:58:10;95978.50;;;11.36;100.00
62510;BME280;48558;48.242;11.654;2023-05-01T06:02:25;95981.75;;;11.79;100.00
62510;BME280;48558;48.242;11.654;2023-05-01T06:06:48;95984.34;;;11.82;100.00
62510;BME280;48558;48.242;11.654;2023-05-01T06:11:00;95986.31;;;11.96;100.00
62510;BME280;48558;48.242;11.654;2023-05-01T06:15:13;95984.34;;;11.53;100.00
62510;BME280;48558;48.242;11.654;2023-05-01T06:19:28;95978.44;;;11.75;100.00
62510;BME280;48558;48.242;11.654;2023-05-01T06:23:40;95976.78;;;12.12;100.00
62510;BME280;48558;48.242;11.654;2023-05-01T06:27:53;95976.53;;;12.30;100.00
62510;BME280;48558;48.242;11.654;2023-05-01T06:32:06;95954.66;;;12.32;100.00
62510;BME280;48558;48.242;11.654;2023-05-01T06:36:19;95973.47;;;12.63;100.00
62510;BME280;48558;48.242;11.654;2023-05-01T06:40:31;95966.19;;;12.65;100.00
62510;BME280;48558;48.242;11.654;2023-05-01T06:44:45;95981.88;;;12.88;100.00
62510;BME280;48558;48.242;11.654;2023-05-01T06:48:58;95980.06;;;12.85;100.00
62510;BME280;48558;48.242;11.654;2023-05-01T06:53:10;95974.09;;;12.72;100.00
62510;BME280;48558;48.242;11.654;2023-05-01T06:57:25;95975.22;;;12.11;100.00
62510;BME280;48558;48.242;11.654;2023-05-01T07:01:38;95987.00;;;12.75;100.00
62510;BME280;48558;48.242;11.654;2023-05-01T07:05:51;95981.00;;;13.03;100.00
62510;BME280;48558;48.242;11.654;2023-05-01T07:10:03;95988.13;;;12.49;100.00
62510;BME280;48558;48.242;11.654;2023-05-01T07:14:16;95968.03;;;13.34;100.00
62510;BME280;48558;48.242;11.654;2023-05-01T07:18:39;95980.84;;;13.52;100.00
62510;BME280;48558;48.242;11.654;2023-05-01T07:22:51;95980.25;;;13.68;100.00
62510;BME280;48558;48.242;11.654;2023-05-01T07:27:04;95972.88;;;14.27;100.00
62510;BME280;48558;48.242;11.654;2023-05-01T07:31:18;95976.78;;;14.10;100.00
62510;BME280;48558;48.242;11.654;2023-05-01T07:35:37;95980.78;;;14.03;100.00
62510;BME280;48558;48.242;11.654;2023-05-01T07:39:49;95976.94;;;13.95;100.00
62510;BME280;48558;48.242;11.654;2023-05-01T07:44:02;95972.38;;;14.60;97.00
62510;BME280;48558;48.242;11.654;2023-05-01T07:48:14;95986.06;;;14.01;98.95
62510;BME280;48558;48.242;11.654;2023-05-01T07:52:27;95979.41;;;14.56;98.39
62510;BME280;48558;48.242;11.654;2023-05-01T07:56:40;95987.97;;;15.00;97.89
62510;BME280;48558;48.242;11.654;2023-05-01T08:00:53;95986.41;;;14.88;95.75
62510;BME280;48558;48.242;11.654;2023-05-01T08:05:06;95980.69;;;15.08;88.24
62510;BME280;48558;48.242;11.654;2023-05-01T08:09:19;95991.88;;;14.71;90.56
62510;BME280;48558;48.242;11.654;2023-05-01T08:13:31;95990.69;;;13.79;100.00
62510;BME280;48558;48.242;11.654;2023-05-01T08:17:44;95991.97;;;14.46;99.35
62510;BME280;48558;48.242;11.654;2023-05-01T08:21:57;95995.75;;;14.11;94.01
62510;BME280;48558;48.242;11.654;2023-05-01T08:26:10;95996.69;;;14.03;99.44
62510;BME280;48558;48.242;11.654;2023-05-01T08:30:23;96000.75;;;14.07;100.00
62510;BME280;48558;48.242;11.654;2023-05-01T08:34:35;96007.22;;;13.93;100.00
62510;BME280;48558;48.242;11.654;2023-05-01T08:38:48;95994.81;;;13.37;100.00
62510;BME280;48558;48.242;11.654;2023-05-01T08:43:00;96005.28;;;13.28;100.00
62510;BME280;48558;48.242;11.654;2023-05-01T08:47:16;95998.81;;;13.56;100.00
62510;BME280;48558;48.242;11.654;2023-05-01T08:51:30;96006.13;;;13.59;100.00
62510;BME280;48558;48.242;11.654;2023-05-01T08:55:44;96014.97;;;13.58;100.00
62510;BME280;48558;48.242;11.654;2023-05-01T08:59:59;96013.66;;;13.79;100.00
62510;BME280;48558;48.242;11.654;2023-05-01T09:04:13;96020.28;;;13.87;100.00
62510;BME280;48558;48.242;11.654;2023-05-01T09:08:26;96021.72;;;13.77;100.00
62510;BME280;48558;48.242;11.654;2023-05-01T09:12:39;96012.22;;;12.98;100.00
62510;BME280;48558;48.242;11.654;2023-05-01T09:16:53;96024.16;;;13.95;100.00
62510;BME280;48558;48.242;11.654;2023-05-01T09:21:07;96022.34;;;13.01;100.00
62510;BME280;48558;48.242;11.654;2023-05-01T09:25:20;96027.19;;;13.46;100.00
62510;BME280;48558;48.242;11.654;2023-05-01T09:29:38;96033.94;;;13.39;100.00
62510;BME280;48558;48.242;11.654;2023-05-01T09:34:03;96023.28;;;13.12;100.00
62510;BME280;48558;48.242;11.654;2023-05-01T09:38:18;96040.50;;;13.02;100.00
62510;BME280;48558;48.242;11.654;2023-05-01T09:42:33;96041.34;;;12.87;100.00
62510;BME280;48558;48.242;11.654;2023-05-01T09:46:53;96041.09;;;13.06;100.00
62510;BME280;48558;48.242;11.654;2023-05-01T09:51:28;96047.47;;;12.57;100.00
62510;BME280;48558;48.242;11.654;2023-05-01T09:55:59;96046.91;;;12.53;100.00
62510;BME280;48558;48.242;11.654;2023-05-01T10:00:13;96048.66;;;12.70;100.00
62510;BME280;48558;48.242;11.654;2023-05-01T10:04:34;96033.22;;;12.49;100.00
62510;BME280;48558;48.242;11.654;2023-05-01T10:08:48;96044.09;;;12.03;100.00
62510;BME280;48558;48.242;11.654;2023-05-01T10:13:12;96046.09;;;12.17;100.00
62510;BME280;48558;48.242;11.654;2023-05-01T10:17:26;96038.41;;;12.76;100.00
62510;BME280;48558;48.242;11.654;2023-05-01T10:21:38;96041.81;;;12.16;100.00
62510;BME280;48558;48.242;11.654;2023-05-01T10:25:55;96056.06;;;12.59;100.00
62510;BME280;48558;48.242;11.654;2023-05-01T10:30:11;96057.94;;;12.18;100.00
62510;BME280;48558;48.242;11.654;2023-05-01T10:34:24;96050.00;;;12.26;100.00
62510;BME280;48558;48.242;11.654;2023-05-01T10:38:39;96061.34;;;12.42;100.00
62510;BME280;48558;48.242;11.654;2023-05-01T10:51:59;96048.47;;;12.39;100.00
62510;BME280;48558;48.242;11.654;2023-05-01T11:00:43;96052.88;;;11.34;100.00
62510;BME280;48558;48.242;11.654;2023-05-01T11:04:56;96043.81;;;11.87;100.00
62510;BME280;48558;48.242;11.654;2023-05-01T11:09:34;96036.28;;;11.34;100.00
62510;BME280;48558;48.242;11.654;2023-05-01T11:14:02;96028.63;;;11.68;100.00
62510;BME280;48558;48.242;11.654;2023-05-01T11:18:44;96036.78;;;11.09;100.00
62510;BME280;48558;48.242;11.654;2023-05-01T11:22:57;96037.91;;;11.79;100.00
62510;BME280;48558;48.242;11.654;2023-05-01T11:27:14;96048.84;;;10.97;100.00
62510;BME280;48558;48.242;11.654;2023-05-01T11:31:27;96040.75;;;11.70;100.00
62510;BME280;48558;48.242;11.654;2023-05-01T11:36:00;96037.81;;;11.35;100.00
62510;BME280;48558;48.242;11.654;2023-05-01T11:40:31;96036.38;;;12.07;100.00
62510;BME280;48558;48.242;11.654;2023-05-01T11:45:07;96023.91;;;11.06;100.00
62510;BME280;48558;48.242;11.654;2023-05-01T11:49:26;96025.22;;;11.49;100.00
62510;BME280;48558;48.242;11.654;2023-05-01T11:53:41;96029.50;;;11.88;100.00
62510;BME280;48558;48.242;11.654;2023-05-01T11:58:04;96027.03;;;11.76;100.00
62510;BME280;48558;48.242;11.654;2023-05-01T12:02:19;96023.72;;;11.63;100.00
62510;BME280;48558;48.242;11.654;2023-05-01T12:06:44;96026.09;;;11.40;100.00
62510;BME280;48558;48.242;11.654;2023-05-01T12:10:57;96040.34;;;11.10;100.00
62510;BME280;48558;48.242;11.654;2023-05-01T12:15:20;96030.81;;;10.87;100.00
62510;BME280;48558;48.242;11.654;2023-05-01T12:19:33;96048.66;;;11.24;100.00
62510;BME280;48558;48.242;11.654;2023-05-01T12:23:47;96041.25;;;11.69;100.00
62510;BME280;48558;48.242;11.654;2023-05-01T12:28:02;96045.25;;;11.97;100.00
62510;BME280;48558;48.242;11.654;2023-05-01T12:32:27;96028.97;;;11.46;100.00
62510;BME280;48558;48.242;11.654;2023-05-01T12:36:52;96037.88;;;12.23;100.00
62510;BME280;48558;48.242;11.654;2023-05-01T12:41:05;96035.97;;;12.29;100.00
62510;BME280;48558;48.242;11.654;2023-05-01T12:45:20;96030.13;;;12.27;100.00
62510;BME280;48558;48.242;11.654;2023-05-01T12:49:35;96029.97;;;12.16;100.00
62510;BME280;48558;48.242;11.654;2023-05-01T12:53:48;96028.25;;;12.53;100.00
62510;BME280;48558;48.242;11.654;2023-05-01T12:58:02;96033.25;;;13.24;100.00
62510;BME280;48558;48.242;11.654;2023-05-01T13:02:16;96034.63;;;13.34;100.00
62510;BME280;48558;48.242;11.654;2023-05-01T13:06:32;96023.31;;;13.38;100.00
62510;BME280;48558;48.242;11.654;2023-05-01T13:10:45;96027.75;;;12.89;100.00
62510;BME280;48558;48.242;11.654;2023-05-01T13:14:58;96023.94;;;13.73;100.00
62510;BME280;48558;48.242;11.654;2023-05-01T13:19:12;96025.94;;;13.98;100.00
62510;BME280;48558;48.242;11.654;2023-05-01T13:23:36;96031.16;;;13.39;100.00
62510;BME280;48558;48.242;11.654;2023-05-01T13:27:59;96018.13;;;13.97;100.00
62510;BME280;48558;48.242;11.654;2023-05-01T13:32:11;96015.25;;;13.86;100.00
62510;BME280;48558;48.242;11.654;2023-05-01T13:36:24;96012.75;;;14.92;100.00
62510;BME280;48558;48.242;11.654;2023-05-01T13:40:39;96022.47;;;14.71;100.00
62510;BME280;48558;48.242;11.654;2023-05-01T13:44:54;96025.44;;;14.99;100.00
62510;BME280;48558;48.242;11.654;2023-05-01T13:49:08;96030.72;;;13.98;100.00
62510;BME280;48558;48.242;11.654;2023-05-01T13:53:20;96020.06;;;14.90;100.00
62510;BME280;48558;48.242;11.654;2023-05-01T13:57:36;96018.13;;;15.71;100.00
62510;BME280;48558;48.242;11.654;2023-05-01T14:01:49;96014.03;;;15.61;100.00
62510;BME280;48558;48.242;11.654;2023-05-01T14:06:02;96015.97;;;15.39;100.00
62510;BME280;48558;48.242;11.654;2023-05-01T14:10:15;96007.50;;;15.92;100.00
62510;BME280;48558;48.242;11.654;2023-05-01T14:14:29;96012.75;;;14.92;100.00
62510;BME280;48558;48.242;11.654;2023-05-01T14:18:45;96024.34;;;14.85;100.00
62510;BME280;48558;48.242;11.654;2023-05-01T14:22:59;96009.53;;;14.63;100.00
62510;BME280;48558;48.242;11.654;2023-05-01T14:27:13;96008.91;;;14.84;100.00
62510;BME280;48558;48.242;11.654;2023-05-01T14:31:28;96012.34;;;15.16;100.00
62510;BME280;48558;48.242;11.654;2023-05-01T14:35:52;96020.28;;;14.86;100.00
62510;BME280;48558;48.242;11.654;2023-05-01T14:40:10;96019.63;;;14.60;100.00
62510;BME280;48558;48.242;11.654;2023-05-01T14:44:38;96012.13;;;15.25;100.00
62510;BME280;48558;48.242;11.654;2023-05-01T14:48:51;96012.06;;;14.61;100.00
62510;BME280;48558;48.242;11.654;2023-05-01T14:53:03;96007.63;;;14.43;100.00
62510;BME280;48558;48.242;11.654;2023-05-01T14:57:16;96014.94;;;15.31;100.00
62510;BME280;48558;48.242;11.654;2023-05-01T15:01:29;96008.75;;;15.69;100.00
62510;BME280;48558;48.242;11.654;2023-05-01T15:05:42;96021.41;;;15.81;100.00
62510;BME280;48558;48.242;11.654;2023-05-01T15:09:55;96022.81;;;15.38;100.00
62510;BME280;48558;48.242;11.654;2023-05-01T15:14:07;96023.25;;;15.25;100.00
62510;BME280;48558;48.242;11.654;2023-05-01T15:18:21;96002.91;;;15.72;100.00
62510;BME280;48558;48.242;11.654;2023-05-01T15:22:34;96025.59;;;15.38;100.00
62510;BME280;48558;48.242;11.654;2023-05-01T15:26:48;96016.22;;;15.41;100.00
62510;BME280;48558;48.242;11.654;2023-05-01T15:31:01;96027.78;;;15.23;100.00
62510;BME280;48558;48.242;11.654;2023-05-01T15:35:13;96024.75;;;15.21;100.00
62510;BME280;48558;48.242;11.654;2023-05-01T15:39:27;96024.19;;;15.11;100.00
62510;BME280;48558;48.242;11.654;2023-05-01T15:43:40;96015.84;;;15.11;100.00
62510;BME280;48558;48.242;11.654;2023-05-01T15:47:52;96018.59;;;14.58;100.00
62510;BME280;48558;48.242;11.654;2023-05-01T15:52:05;96031.13;;;14.79;100.00
62510;BME280;48558;48.242;11.654;2023-05-01T15:56:18;96027.25;;;14.65;100.00
62510;BME280;48558;48.242;11.654;2023-05-01T16:00:31;96031.91;;;14.43;100.00
62510;BME280;48558;48.242;11.654;2023-05-01T16:04:45;96030.22;;;14.56;100.00
62510;BME280;48558;48.242;11.654;2023-05-01T16:08:59;96020.13;;;14.27;100.00
62510;BME280;48558;48.242;11.654;2023-05-01T16:13:21;96023.94;;;14.61;100.00
62510;BME280;48558;48.242;11.654;2023-05-01T16:17:44;96018.56;;;14.52;100.00
62510;BME280;48558;48.242;11.654;2023-05-01T16:21:57;96034.28;;;15.03;100.00
62510;BME280;48558;48.242;11.654;2023-05-01T16:26:10;96027.59;;;14.84;100.00
62510;BME280;48558;48.242;11.654;2023-05-01T16:30:24;96011.78;;;14.27;100.00
62510;BME280;48558;48.242;11.654;2023-05-01T16:34:38;96039.66;;;14.33;100.00
62510;BME280;48558;48.242;11.654;2023-05-01T16:38:51;96039.44;;;14.36;100.00
62510;BME280;48558;48.242;11.654;2023-05-01T16:43:04;96040.25;;;14.43;100.00
62510;BME280;48558;48.242;11.654;2023-05-01T16:47:16;96035.03;;;13.99;100.00
62510;BME280;48558;48.242;11.654;2023-05-01T16:51:29;96049.50;;;13.77;100.00
62510;BME280;48558;48.242;11.654;2023-05-01T16:55:43;96034.63;;;13.54;100.00
62510;BME280;48558;48.242;11.654;2023-05-01T16:59:55;96054.13;;;13.40;100.00
62510;BME280;48558;48.242;11.654;2023-05-01T17:04:18;96049.66;;;13.48;100.00
62510;BME280;48558;48.242;11.654;2023-05-01T17:08:32;96054.41;;;13.22;100.00
62510;BME280;48558;48.242;11.654;2023-05-01T17:12:44;96060.88;;;12.98;100.00
62510;BME280;48558;48.242;11.654;2023-05-01T17:16:57;96060.31;;;12.74;100.00
62510;BME280;48558;48.242;11.654;2023-05-01T17:21:09;96072.06;;;12.84;100.00
62510;BME280;48558;48.242;11.654;2023-05-01T17:25:22;96072.13;;;12.55;100.00
62510;BME280;48558;48.242;11.654;2023-05-01T17:29:34;96086.16;;;12.51;100.00
62510;BME280;48558;48.242;11.654;2023-05-01T17:33:47;96082.47;;;12.40;100.00
62510;BME280;48558;48.242;11.654;2023-05-01T17:38:00;96084.47;;;12.10;100.00
62510;BME280;48558;48.242;11.654;2023-05-01T17:42:12;96071.69;;;11.98;100.00
62510;BME280;48558;48.242;11.654;2023-05-01T17:46:25;96080.09;;;11.89;100.00
62510;BME280;48558;48.242;11.654;2023-05-01T17:50:37;96100.06;;;12.07;100.00
62510;BME280;48558;48.242;11.654;2023-05-01T17:54:50;96096.06;;;11.94;100.00
62510;BME280;48558;48.242;11.654;2023-05-01T17:59:02;96099.97;;;12.02;100.00
62510;BME280;48558;48.242;11.654;2023-05-01T18:03:15;96100.72;;;11.88;100.00
62510;BME280;48558;48.242;11.654;2023-05-01T18:07:28;96110.84;;;11.91;100.00
62510;BME280;48558;48.242;11.654;2023-05-01T18:11:43;96117.03;;;11.71;100.00
62510;BME280;48558;48.242;11.654;2023-05-01T18:15:55;96117.03;;;11.71;100.00
62510;BME280;48558;48.242;11.654;2023-05-01T18:20:08;96128.25;;;11.68;100.00
62510;BME280;48558;48.242;11.654;2023-05-01T18:24:27;96118.41;;;11.67;100.00
62510;BME280;48558;48.242;11.654;2023-05-01T18:28:44;96127.78;;;11.69;100.00
62510;BME280;48558;48.242;11.654;2023-05-01T18:32:57;96140.16;;;11.59;100.00
62510;BME280;48558;48.242;11.654;2023-05-01T18:37:09;96135.19;;;11.63;100.00
62510;BME280;48558;48.242;11.654;2023-05-01T18:41:22;96144.91;;;11.59;100.00
62510;BME280;48558;48.242;11.654;2023-05-01T18:45:37;96135.47;;;11.50;100.00
62510;BME280;48558;48.242;11.654;2023-05-01T18:49:50;96152.28;;;11.62;100.00
62510;BME280;48558;48.242;11.654;2023-05-01T18:54:02;96170.47;;;11.53;100.00
62510;BME280;48558;48.242;11.654;2023-05-01T18:58:16;96164.94;;;11.53;100.00
62510;BME280;48558;48.242;11.654;2023-05-01T19:02:29;96174.19;;;11.50;100.00
62510;BME280;48558;48.242;11.654;2023-05-01T19:06:44;96177.75;;;11.51;100.00
62510;BME280;48558;48.242;11.654;2023-05-01T19:10:59;96181.91;;;11.46;100.00
62510;BME280;48558;48.242;11.654;2023-05-01T19:15:12;96178.84;;;11.44;100.00
62510;BME280;48558;48.242;11.654;2023-05-01T19:19:24;96173.34;;;11.35;100.00
62510;BME280;48558;48.242;11.654;2023-05-01T19:23:37;96173.25;;;11.30;100.00
62510;BME280;48558;48.242;11.654;2023-05-01T19:27:51;96183.25;;;11.27;100.00
62510;BME280;48558;48.242;11.654;2023-05-01T19:32:09;96186.69;;;11.13;100.00
62510;BME280;48558;48.242;11.654;2023-05-01T19:36:28;96182.72;;;11.14;100.00
62510;BME280;48558;48.242;11.654;2023-05-01T19:40:41;96180.84;;;11.20;100.00
62510;BME280;48558;48.242;11.654;2023-05-01T19:44:53;96180.25;;;11.16;100.00
62510;BME280;48558;48.242;11.654;2023-05-01T19:49:16;96190.66;;;11.21;100.00
62510;BME280;48558;48.242;11.654;2023-05-01T19:53:28;96197.59;;;11.17;100.00
62510;BME280;48558;48.242;11.654;2023-05-01T19:57:52;96192.13;;;11.08;100.00
62510;BME280;48558;48.242;11.654;2023-05-01T20:02:05;96195.19;;;11.10;100.00
62510;BME280;48558;48.242;11.654;2023-05-01T20:06:27;96204.66;;;11.18;100.00
62510;BME280;48558;48.242;11.654;2023-05-01T20:10:40;96201.63;;;11.07;100.00
62510;BME280;48558;48.242;11.654;2023-05-01T20:14:52;96209.47;;;11.08;100.00
62510;BME280;48558;48.242;11.654;2023-05-01T20:19:08;96198.09;;;11.06;100.00
62510;BME280;48558;48.242;11.654;2023-05-01T20:23:21;96229.59;;;11.09;100.00
62510;BME280;48558;48.242;11.654;2023-05-01T20:27:38;96229.13;;;11.10;100.00
62510;BME280;48558;48.242;11.654;2023-05-01T20:31:59;96228.81;;;10.75;100.00
62510;BME280;48558;48.242;11.654;2023-05-01T20:36:12;96235.91;;;10.58;100.00
62510;BME280;48558;48.242;11.654;2023-05-01T20:40:25;96237.13;;;10.57;100.00
62510;BME280;48558;48.242;11.654;2023-05-01T20:44:39;96231.78;;;10.45;100.00
62510;BME280;48558;48.242;11.654;2023-05-01T20:48:51;96239.00;;;10.51;100.00
62510;BME280;48558;48.242;11.654;2023-05-01T20:53:15;96239.44;;;10.50;100.00
62510;BME280;48558;48.242;11.654;2023-05-01T20:57:28;96235.63;;;10.47;100.00
62510;BME280;48558;48.242;11.654;2023-05-01T21:01:40;96249.13;;;10.45;100.00
62510;BME280;48558;48.242;11.654;2023-05-01T21:05:57;96252.66;;;10.46;100.00
62510;BME280;48558;48.242;11.654;2023-05-01T21:10:10;96244.41;;;10.28;100.00
62510;BME280;48558;48.242;11.654;2023-05-01T21:14:28;96246.56;;;10.33;100.00
62510;BME280;48558;48.242;11.654;2023-05-01T21:18:42;96251.00;;;10.30;100.00
62510;BME280;48558;48.242;11.654;2023-05-01T21:22:54;96259.41;;;10.36;100.00
62510;BME280;48558;48.242;11.654;2023-05-01T21:27:07;96258.22;;;10.28;100.00
62510;BME280;48558;48.242;11.654;2023-05-01T21:31:29;96258.69;;;10.17;100.00
62510;BME280;48558;48.242;11.654;2023-05-01T21:35:44;96271.25;;;10.27;100.00
62510;BME280;48558;48.242;11.654;2023-05-01T21:39:58;96268.34;;;10.22;100.00
62510;BME280;48558;48.242;11.654;2023-05-01T21:44:12;96271.41;;;10.24;100.00
62510;BME280;48558;48.242;11.654;2023-05-01T21:48:27;96268.66;;;10.24;100.00
62510;BME280;48558;48.242;11.654;2023-05-01T21:52:44;96271.53;;;10.29;100.00
62510;BME280;48558;48.242;11.654;2023-05-01T21:56:59;96267.75;;;10.18;100.00
62510;BME280;48558;48.242;11.654;2023-05-01T22:01:12;96280.00;;;10.35;100.00
62510;BME280;48558;48.242;11.654;2023-05-01T22:05:28;96281.69;;;10.23;100.00
62510;BME280;48558;48.242;11.654;2023-05-01T22:09:43;96282.47;;;10.24;100.00
62510;BME280;48558;48.242;11.654;2023-05-01T22:13:55;96301.47;;;10.31;100.00
62510;BME280;48558;48.242;11.654;2023-05-01T22:18:09;96294.41;;;10.30;100.00
62510;BME280;48558;48.242;11.654;2023-05-01T22:22:22;96303.59;;;10.36;100.00
62510;BME280;48558;48.242;11.654;2023-05-01T22:26:35;96302.41;;;10.28;100.00
62510;BME280;48558;48.242;11.654;2023-05-01T22:30:48;96293.63;;;10.20;100.00